Time;durP1;ratioP1;P1;durP2;ratioP2;P2;SDS_P1;SDS_P2;PMS_P1;PMS_P2;Temp;Humidity;BMP_temperature;BMP_pressure;BME280_temperature;BME280_humidity;BME280_pressure;Samples;Min_cycle;Max_cycle;Signal;HPM_P1;HPM_P2
2023/07/03 04:06:31;;;;;;;3.80;3.33;;;18.80;93.20;;;;;;5107546;22;20488;-64
2023/07/03 04:08:59;;;;;;;5.50;3.50;;;18.90;93.10;;;;;;5016685;28;20471;-63
2023/07/03 04:11:26;;;;;;;4.23;3.83;;;18.90;93.10;;;;;;5017349;28;20402;-63
2023/07/03 04:13:52;;;;;;;6.30;4.13;;;18.90;93.10;;;;;;5016472;28;20419;-62
2023/07/03 04:16:18;;;;;;;4.00;3.47;;;18.90;93.30;;;;;;5016924;28;20823;-63
2023/07/03 04:18:44;;;;;;;5.47;3.13;;;18.90;93.30;;;;;;5016722;28;20175;-62
2023/07/03 04:21:09;;;;;;;7.70;3.40;;;18.90;93.30;;;;;;4999338;28;20491;-63
2023/07/03 04:23:35;;;;;;;7.90;4.07;;;18.90;93.50;;;;;;5015879;28;20203;-60
2023/07/03 04:26:02;;;;;;;3.60;2.87;;;18.80;93.50;;;;;;5016615;28;20206;-64
2023/07/03 04:28:28;;;;;;;5.13;3.87;;;18.80;93.80;;;;;;5016507;28;20198;-61
2023/07/03 04:30:53;;;;;;;8.30;4.40;;;18.80;93.80;;;;;;5016666;28;20415;-63
2023/07/03 04:33:19;;;;;;;8.27;4.47;;;18.80;93.80;;;;;;5016070;28;20173;-61
2023/07/03 04:35:46;;;;;;;7.30;3.90;;;18.80;93.80;;;;;;5015118;28;20253;-62
2023/07/03 04:38:12;;;;;;;3.40;3.07;;;18.80;94.00;;;;;;5016303;28;20229;-62
2023/07/03 04:40:38;;;;;;;5.63;4.10;;;18.80;94.00;;;;;;5016503;28;20911;-62
2023/07/03 04:43:07;;;;;;;3.87;3.57;;;18.70;94.40;;;;;;5016296;28;20175;-62
2023/07/03 04:45:47;;;;;;;3.53;3.23;;;18.70;94.10;;;;;;5016038;28;20437;-61
2023/07/03 04:48:14;;;;;;;3.70;3.03;;;18.80;94.20;;;;;;5016264;28;20516;-63
2023/07/03 04:50:40;;;;;;;5.13;3.60;;;18.80;94.20;;;;;;5016165;28;20414;-62
2023/07/03 04:53:05;;;;;;;11.47;4.10;;;18.80;94.20;;;;;;5016203;28;20463;-63
2023/07/03 04:55:32;;;;;;;6.20;3.80;;;18.90;94.20;;;;;;5015618;28;20780;-60
2023/07/03 04:57:59;;;;;;;5.63;3.47;;;18.90;94.10;;;;;;5016348;28;20240;-62
2023/07/03 05:00:27;;;;;;;5.17;3.40;;;18.90;94.10;;;;;;5016047;28;20492;-60
2023/07/03 05:02:58;;;;;;;4.60;3.83;;;18.90;94.00;;;;;;5015980;28;20493;-62
2023/07/03 05:05:25;;;;;;;3.70;3.03;;;19.00;94.00;;;;;;5015532;28;20437;-62
2023/07/03 05:07:50;;;;;;;5.47;3.43;;;19.00;94.00;;;;;;5015766;28;20461;-62
2023/07/03 05:10:17;;;;;;;5.40;4.20;;;19.00;94.00;;;;;;5015817;28;20935;-62
2023/07/03 05:12:44;;;;;;;4.43;3.30;;;19.00;94.00;;;;;;5015624;28;20666;-64
2023/07/03 05:15:12;;;;;;;6.50;3.37;;;19.10;94.00;;;;;;5010227;28;20444;-59
2023/07/03 05:17:39;;;;;;;7.50;3.90;;;19.10;93.80;;;;;;5004114;28;20502;-62
2023/07/03 05:20:08;;;;;;;6.00;4.20;;;19.20;93.90;;;;;;4995855;28;20820;-59
2023/07/03 05:22:35;;;;;;;7.20;4.10;;;19.20;93.80;;;;;;5013511;28;20429;-61
2023/07/03 05:25:01;;;;;;;4.30;3.83;;;19.30;93.80;;;;;;5015079;28;20408;-59
2023/07/03 05:27:27;;;;;;;4.37;3.13;;;19.40;93.70;;;;;;5015462;28;20452;-59
2023/07/03 05:29:52;;;;;;;4.53;3.07;;;19.40;93.60;;;;;;5015322;28;20760;-59
2023/07/03 05:32:18;;;;;;;5.17;3.90;;;19.50;93.50;;;;;;5015417;28;20179;-60
2023/07/03 05:34:44;;;;;;;4.50;3.00;;;19.50;93.40;;;;;;4997173;28;20227;-61
2023/07/03 05:37:09;;;;;;;5.33;4.10;;;19.60;93.30;;;;;;4978211;28;20183;-60
2023/07/03 05:39:35;;;;;;;4.33;3.37;;;19.70;93.40;;;;;;4995905;28;20238;-60
2023/07/03 05:42:01;;;;;;;3.73;3.40;;;19.80;93.40;;;;;;5001822;28;20175;-67
2023/07/03 05:44:27;;;;;;;5.47;4.00;;;19.90;93.30;;;;;;5014606;28;20190;-64
2023/07/03 05:46:53;;;;;;;4.20;3.80;;;20.00;93.10;;;;;;5014860;28;20511;-62
2023/07/03 05:49:18;;;;;;;6.20;3.77;;;20.10;93.10;;;;;;5014884;28;20410;-60
2023/07/03 05:51:44;;;;;;;4.70;3.43;;;20.20;92.90;;;;;;5015060;28;20164;-62
2023/07/03 05:54:10;;;;;;;4.93;4.17;;;20.30;92.90;;;;;;4998607;28;20183;-63
2023/07/03 05:56:35;;;;;;;4.93;3.00;;;20.40;92.60;;;;;;4977868;28;20175;-61
2023/07/03 05:59:01;;;;;;;2.93;2.53;;;20.50;92.60;;;;;;4995546;28;20215;-63
2023/07/03 06:01:28;;;;;;;4.00;2.90;;;20.70;92.50;;;;;;4998842;28;20179;-63
2023/07/03 06:03:53;;;;;;;3.60;3.30;;;20.80;92.30;;;;;;4994948;28;20436;-61
2023/07/03 06:06:19;;;;;;;4.70;3.07;;;20.90;92.30;;;;;;4994791;28;20925;-64
2023/07/03 06:08:45;;;;;;;3.30;3.00;;;21.00;92.30;;;;;;4996399;28;20696;-67
2023/07/03 06:11:11;;;;;;;3.33;2.10;;;21.20;91.60;;;;;;4995069;28;20411;-67
2023/07/03 06:13:37;;;;;;;3.27;2.80;;;21.30;91.50;;;;;;5011522;28;20590;-68
2023/07/03 06:16:02;;;;;;;7.70;3.13;;;21.40;91.50;;;;;;5014577;28;20426;-70
2023/07/03 06:18:28;;;;;;;2.70;2.37;;;21.60;91.00;;;;;;5009126;28;20193;-67
2023/07/03 06:20:54;;;;;;;3.80;3.47;;;21.70;90.90;;;;;;4995101;28;20626;-67
2023/07/03 06:23:19;;;;;;;4.80;3.23;;;21.80;90.80;;;;;;4994475;28;20210;-68
2023/07/03 06:25:46;;;;;;;2.80;2.60;;;21.90;90.60;;;;;;4994803;28;20200;-68
2023/07/03 06:28:12;;;;;;;6.83;3.47;;;21.90;90.40;;;;;;4994112;28;20673;-68
2023/07/03 06:30:38;;;;;;;5.60;2.83;;;22.00;90.30;;;;;;4999831;28;20422;-68
2023/07/03 06:33:03;;;;;;;3.40;3.03;;;22.10;90.20;;;;;;5014665;28;20170;-67
2023/07/03 06:35:29;;;;;;;3.20;2.77;;;22.10;90.10;;;;;;5013081;28;20209;-68
2023/07/03 06:37:58;;;;;;;3.03;2.73;;;22.10;90.10;;;;;;5013514;28;20187;-65
2023/07/03 06:40:24;;;;;;;3.17;2.87;;;22.10;90.10;;;;;;5002694;28;20183;-68
2023/07/03 06:42:52;;;;;;;4.10;3.10;;;22.10;90.00;;;;;;5009546;28;20407;-66
2023/07/03 06:45:17;;;;;;;3.27;2.97;;;22.10;90.00;;;;;;5025122;28;20472;-66
2023/07/03 06:47:43;;;;;;;3.20;2.80;;;22.20;90.10;;;;;;5013987;28;20451;-66
2023/07/03 06:50:09;;;;;;;3.33;3.03;;;22.30;89.50;;;;;;5013282;28;20257;-68
2023/07/03 06:52:36;;;;;;;3.27;2.53;;;22.40;89.10;;;;;;5005128;28;20254;-65
2023/07/03 06:55:03;;;;;;;2.73;2.43;;;22.50;90.00;;;;;;4993926;28;20422;-67
2023/07/03 06:57:28;;;;;;;2.87;2.50;;;22.50;89.40;;;;;;5003210;28;20417;-67
2023/07/03 06:59:55;;;;;;;4.53;3.07;;;22.60;89.30;;;;;;5025834;28;20459;-66
2023/07/03 07:02:21;;;;;;;2.97;2.50;;;22.70;88.80;;;;;;5013811;28;20405;-64
2023/07/03 07:04:46;;;;;;;4.37;3.07;;;22.80;88.70;;;;;;5023494;28;20209;-67
2023/07/03 07:07:12;;;;;;;3.77;2.50;;;22.80;88.30;;;;;;5033749;28;20655;-67
2023/07/03 07:09:38;;;;;;;3.20;2.40;;;23.00;88.20;;;;;;5023022;28;20225;-67
2023/07/03 07:12:03;;;;;;;6.30;3.50;;;23.20;88.60;;;;;;4996076;28;20183;-69
2023/07/03 07:14:29;;;;;;;3.60;2.90;;;23.30;87.90;;;;;;5006341;28;20215;-67
2023/07/03 07:16:54;;;;;;;3.00;2.80;;;23.50;87.60;;;;;;4994377;28;20245;-66
2023/07/03 07:19:20;;;;;;;3.10;2.53;;;23.50;86.30;;;;;;4994074;28;20182;-68
2023/07/03 07:21:46;;;;;;;3.10;2.70;;;23.40;85.30;;;;;;5008264;28;20187;-67
2023/07/03 07:24:17;;;;;;;3.73;2.73;;;23.40;86.20;;;;;;5013114;28;20182;-65
2023/07/03 07:26:43;;;;;;;3.77;2.80;;;23.30;86.00;;;;;;5013351;28;20190;-64
2023/07/03 07:29:08;;;;;;;3.37;2.83;;;23.50;86.00;;;;;;5011502;28;20894;-65
2023/07/03 07:31:37;;;;;;;5.27;3.47;;;23.50;84.60;;;;;;4997007;28;20427;-64
2023/07/03 07:34:07;;;;;;;3.70;2.83;;;23.40;84.90;;;;;;4993486;28;20663;-66
2023/07/03 07:36:33;;;;;;;3.13;2.63;;;23.20;83.90;;;;;;5001023;28;20439;-66
2023/07/03 07:39:00;;;;;;;5.77;3.37;;;23.00;84.40;;;;;;5012564;28;20416;-65
2023/07/03 07:41:27;;;;;;;2.70;2.00;;;22.80;85.40;;;;;;4995141;28;20477;-64
2023/07/03 07:43:54;;;;;;;5.73;2.93;;;22.60;87.00;;;;;;5007228;28;21051;-64
2023/07/03 07:46:20;;;;;;;4.73;2.70;;;22.30;88.30;;;;;;4996437;28;20447;-67
2023/07/03 07:48:49;;;;;;;3.53;2.83;;;22.20;89.50;;;;;;4999194;28;20941;-66
2023/07/03 07:51:14;;;;;;;3.77;2.50;;;22.00;90.10;;;;;;4994633;28;20830;-65
2023/07/03 07:53:40;;;;;;;3.67;3.37;;;21.70;90.70;;;;;;5013267;28;20509;-67
2023/07/03 07:56:07;;;;;;;3.13;2.63;;;21.50;91.20;;;;;;5010275;28;20200;-65
2023/07/03 07:58:34;;;;;;;2.57;2.37;;;21.40;91.50;;;;;;5015490;28;20193;-63
2023/07/03 08:01:00;;;;;;;3.33;2.70;;;21.30;91.60;;;;;;5015069;28;20509;-64
2023/07/03 08:03:26;;;;;;;4.83;2.50;;;21.30;92.00;;;;;;5016781;28;20406;-67
2023/07/03 08:06:00;;;;;;;2.90;2.57;;;21.30;92.20;;;;;;5016758;28;20225;-64
2023/07/03 08:08:26;;;;;;;4.57;3.13;;;21.30;92.10;;;;;;5017088;28;20935;-66
2023/07/03 08:10:53;;;;;;;4.60;2.50;;;21.30;92.20;;;;;;5016703;28;20415;-66
2023/07/03 08:13:19;;;;;;;3.53;3.23;;;21.40;92.20;;;;;;5004001;28;20481;-66
2023/07/03 08:15:45;;;;;;;4.13;3.73;;;21.30;92.30;;;;;;4998222;28;20418;-64
2023/07/03 08:18:12;;;;;;;2.90;2.57;;;21.30;92.70;;;;;;4997071;28;20418;-63
2023/07/03 08:20:37;;;;;;;4.50;3.40;;;21.30;92.60;;;;;;4999616;28;20566;-63
2023/07/03 08:23:03;;;;;;;2.90;2.70;;;21.50;92.50;;;;;;4996795;28;20423;-63
2023/07/03 08:25:28;;;;;;;3.40;2.60;;;21.80;92.90;;;;;;4995948;28;20199;-63
2023/07/03 08:27:54;;;;;;;5.00;3.47;;;22.50;92.40;;;;;;4996787;28;20213;-63
2023/07/03 08:30:22;;;;;;;6.20;3.33;;;23.20;91.50;;;;;;4996526;28;20250;-64
2023/07/03 08:32:48;;;;;;;3.00;2.13;;;23.60;90.40;;;;;;4996806;28;20179;-63
2023/07/03 08:35:13;;;;;;;2.70;2.50;;;23.80;89.80;;;;;;4996521;28;20785;-64
2023/07/03 08:37:39;;;;;;;3.20;2.90;;;23.80;89.30;;;;;;4996855;28;20419;-63
2023/07/03 08:40:06;;;;;;;3.20;2.90;;;23.50;89.80;;;;;;4997020;28;20177;-63
2023/07/03 08:42:44;;;;;;;5.50;3.20;;;23.20;90.40;;;;;;4996674;28;20186;-63
2023/07/03 08:45:13;;;;;;;2.67;2.47;;;22.80;90.90;;;;;;4996485;28;20795;-65
2023/07/03 08:47:39;;;;;;;5.40;3.20;;;22.50;91.20;;;;;;4996731;28;20453;-63
2023/07/03 08:50:06;;;;;;;3.77;3.40;;;22.60;91.30;;;;;;4996766;28;20374;-63
2023/07/03 08:52:41;;;;;;;5.03;3.23;;;22.80;90.90;;;;;;4995511;28;20494;-64
2023/07/03 08:55:10;;;;;;;3.47;3.17;;;23.30;90.90;;;;;;4996443;28;20789;-65
2023/07/03 08:57:38;;;;;;;4.17;3.27;;;24.10;89.70;;;;;;4996724;28;20453;-64
2023/07/03 09:00:10;;;;;;;3.00;2.50;;;24.60;87.60;;;;;;4996651;28;20893;-64
2023/07/03 09:02:44;;;;;;;3.40;3.03;;;24.90;86.20;;;;;;4996560;28;20384;-63
2023/07/03 09:05:21;;;;;;;3.10;2.53;;;25.20;85.50;;;;;;4996380;28;20447;-65
2023/07/03 09:07:52;;;;;;;3.33;2.43;;;25.30;83.40;;;;;;4997434;28;20437;-65
2023/07/03 09:10:24;;;;;;;3.90;3.00;;;25.60;84.10;;;;;;4999921;28;20486;-65
2023/07/03 09:13:09;;;;;;;4.27;3.20;;;26.70;82.00;;;;;;4998932;28;20740;-65
2023/07/03 09:15:52;;;;;;;4.90;3.80;;;27.80;78.50;;;;;;4980375;28;20423;-65
2023/07/03 09:18:24;;;;;;;4.93;3.47;;;28.50;74.80;;;;;;4998207;28;20423;-65
2023/07/03 09:20:50;;;;;;;5.10;3.13;;;28.80;73.50;;;;;;4998493;28;20389;-65
2023/07/03 09:23:29;;;;;;;6.47;3.53;;;28.60;72.00;;;;;;4995960;28;20394;-65
2023/07/03 09:26:07;;;;;;;3.13;2.83;;;28.20;71.60;;;;;;4996170;28;20787;-64
2023/07/03 09:28:37;;;;;;;5.57;3.30;;;27.80;74.00;;;;;;4996122;28;20481;-65
2023/07/03 09:31:03;;;;;;;4.70;3.13;;;27.50;73.40;;;;;;4996159;28;20913;-65
2023/07/03 09:33:28;;;;;;;4.53;3.40;;;27.40;74.50;;;;;;4995764;28;20409;-65
2023/07/03 09:35:54;;;;;;;4.20;3.60;;;27.50;74.70;;;;;;4995907;28;20210;-65
2023/07/03 09:38:22;;;;;;;3.80;3.20;;;28.00;73.10;;;;;;4995700;28;20261;-65
2023/07/03 09:40:50;;;;;;;2.93;2.67;;;28.50;72.90;;;;;;4995811;28;20180;-64
2023/07/03 09:43:23;;;;;;;3.77;3.07;;;28.90;70.00;;;;;;4995622;28;20396;-65
2023/07/03 09:45:50;;;;;;;2.93;2.67;;;29.10;69.70;;;;;;4995743;28;20804;-64
2023/07/03 09:48:24;;;;;;;3.90;2.50;;;29.20;67.90;;;;;;4995298;28;20516;-65
2023/07/03 09:50:50;;;;;;;3.47;3.17;;;29.30;68.60;;;;;;4995584;28;20417;-64
2023/07/03 09:53:21;;;;;;;3.40;2.87;;;29.50;67.40;;;;;;4995166;28;20382;-65
2023/07/03 09:55:52;;;;;;;4.20;3.67;;;29.50;65.90;;;;;;4995352;28;20944;-64
2023/07/03 09:58:18;;;;;;;3.50;3.13;;;29.00;68.00;;;;;;4995264;28;20418;-64
2023/07/03 10:00:47;;;;;;;3.20;2.80;;;29.30;68.80;;;;;;4995455;28;20386;-64
2023/07/03 10:03:12;;;;;;;3.17;2.87;;;30.20;66.90;;;;;;4995393;28;20184;-65
2023/07/03 10:05:42;;;;;;;2.80;2.30;;;31.30;63.80;;;;;;4994362;28;20464;-64
2023/07/03 10:08:09;;;;;;;3.33;3.03;;;32.30;61.10;;;;;;4995284;28;20204;-66
2023/07/03 10:10:35;;;;;;;4.60;3.00;;;33.30;58.30;;;;;;4995144;28;20407;-65
2023/07/03 10:13:12;;;;;;;4.30;2.80;;;33.50;56.50;;;;;;4994945;28;20411;-63
2023/07/03 10:15:40;;;;;;;2.83;2.30;;;33.50;56.60;;;;;;4994882;28;20885;-63
2023/07/03 10:18:13;;;;;;;3.00;2.50;;;33.60;56.10;;;;;;4995399;28;20407;-63
2023/07/03 10:20:43;;;;;;;3.13;2.93;;;33.30;55.20;;;;;;4995084;28;20764;-63
2023/07/03 10:23:14;;;;;;;2.87;2.60;;;32.80;55.50;;;;;;4994924;28;20985;-64
2023/07/03 10:25:43;;;;;;;3.17;2.53;;;32.70;55.20;;;;;;4994593;28;20762;-63
2023/07/03 10:28:33;;;;;;;4.13;2.90;;;32.30;55.30;;;;;;4994586;28;20455;-63
2023/07/03 10:31:04;;;;;;;2.83;2.10;;;32.10;55.40;;;;;;4994628;28;20462;-62
2023/07/03 10:33:40;;;;;;;3.37;3.03;;;31.60;55.00;;;;;;4994509;28;20492;-64
2023/07/03 10:36:11;;;;;;;3.53;2.63;;;31.40;56.30;;;;;;4994569;28;20919;-63
2023/07/03 10:38:47;;;;;;;3.00;2.57;;;31.50;56.00;;;;;;4994791;28;20882;-64
2023/07/03 10:41:19;;;;;;;2.80;2.30;;;31.20;56.10;;;;;;4994557;28;20409;-63
2023/07/03 10:43:51;;;;;;;3.07;2.30;;;30.80;56.10;;;;;;4994048;28;20476;-64
2023/07/03 10:46:41;;;;;;;2.60;2.40;;;30.30;56.50;;;;;;4994492;28;20400;-63
2023/07/03 10:49:12;;;;;;;2.07;1.87;;;29.80;57.00;;;;;;4994589;28;20390;-63
2023/07/03 10:51:56;;;;;;;3.00;2.20;;;29.80;57.00;;;;;;4994345;28;20524;-65
2023/07/03 10:54:37;;;;;;;2.67;2.23;;;29.90;57.60;;;;;;4994101;28;20378;-64
2023/07/03 10:57:07;;;;;;;2.60;2.40;;;29.90;56.70;;;;;;4994236;28;20406;-65
2023/07/03 10:59:39;;;;;;;3.40;3.07;;;29.40;57.20;;;;;;4994427;28;20389;-65
2023/07/03 11:02:22;;;;;;;2.23;2.07;;;28.90;57.70;;;;;;4994112;28;20381;-64
2023/07/03 11:05:02;;;;;;;1.93;1.50;;;28.20;59.20;;;;;;4994196;28;20748;-65
2023/07/03 11:07:50;;;;;;;2.87;1.80;;;27.40;61.50;;;;;;4976801;28;20520;-64
2023/07/03 11:10:36;;;;;;;1.50;1.40;;;26.90;62.30;;;;;;4994271;28;20398;-64
2023/07/03 11:13:18;;;;;;;2.13;1.83;;;26.60;64.80;;;;;;4994380;28;20461;-64
2023/07/03 11:15:57;;;;;;;3.17;1.93;;;26.20;65.80;;;;;;4993473;28;20428;-65
2023/07/03 11:18:49;;;;;;;1.73;1.60;;;26.20;66.90;;;;;;4994220;28;20852;-64
2023/07/03 11:21:34;;;;;;;2.00;1.90;;;26.30;66.70;;;;;;4975577;28;20424;-64
2023/07/03 11:24:40;;;;;;;2.97;2.00;;;26.30;66.60;;;;;;4993887;28;20818;-64
2023/07/03 11:27:47;;;;;;;2.03;1.87;;;26.50;67.10;;;;;;4993895;28;20485;-65
2023/07/03 11:30:14;;;;;;;2.20;1.73;;;26.80;67.20;;;;;;4970020;28;20423;-64
2023/07/03 11:32:41;;;;;;;1.87;1.77;;;26.80;66.70;;;;;;4993547;28;20410;-65
2023/07/03 11:35:08;;;;;;;1.53;1.43;;;26.70;66.50;;;;;;4993544;28;20432;-63
2023/07/03 11:37:44;;;;;;;1.60;1.50;;;26.60;69.50;;;;;;4994101;28;20394;-63
2023/07/03 11:40:29;;;;;;;1.63;1.53;;;26.40;67.80;;;;;;4994171;28;20441;-65
2023/07/03 11:43:28;;;;;;;2.10;1.90;;;26.20;68.60;;;;;;4993962;28;20426;-62
2023/07/03 11:45:57;;;;;;;2.50;1.50;;;26.00;70.30;;;;;;4993968;28;20435;-62
2023/07/03 11:48:34;;;;;;;2.47;1.77;;;25.90;69.90;;;;;;4993815;28;20456;-65
2023/07/03 11:51:06;;;;;;;3.53;1.63;;;25.70;70.20;;;;;;4993907;28;20744;-63
2023/07/03 11:53:33;;;;;;;3.30;2.10;;;25.60;71.90;;;;;;4993818;28;20405;-64
2023/07/03 11:55:59;;;;;;;2.80;1.77;;;25.70;70.40;;;;;;4993756;28;20482;-64
2023/07/03 11:58:28;;;;;;;2.80;2.20;;;25.80;70.40;;;;;;4993726;28;20964;-64
2023/07/03 12:01:24;;;;;;;1.60;1.50;;;25.70;71.30;;;;;;4993520;28;20184;-63
2023/07/03 12:03:59;;;;;;;2.13;1.90;;;25.50;72.30;;;;;;4975975;28;20415;-66
2023/07/03 12:06:39;;;;;;;3.50;2.00;;;25.50;72.40;;;;;;4993592;28;20431;-64
2023/07/03 12:09:25;;;;;;;3.37;1.67;;;25.40;74.20;;;;;;4993624;28;20442;-64
2023/07/03 12:12:00;;;;;;;2.40;1.90;;;25.50;75.50;;;;;;4994379;28;20445;-64
2023/07/03 12:17:19;;;;;;;2.10;1.90;;;25.60;74.40;;;;;;5013481;28;20423;-65
2023/07/03 12:19:47;;;;;;;2.13;1.70;;;25.50;75.20;;;;;;5013285;28;20417;-64
2023/07/03 12:22:15;;;;;;;2.47;2.27;;;25.40;75.70;;;;;;5013211;28;20417;-64
2023/07/03 12:24:41;;;;;;;2.93;1.60;;;25.40;75.70;;;;;;5012369;28;20437;-64
2023/07/03 12:27:08;;;;;;;1.93;1.80;;;25.50;76.40;;;;;;4994233;28;20463;-64
2023/07/03 12:29:36;;;;;;;2.67;2.00;;;25.50;75.90;;;;;;4998808;28;20928;-64
2023/07/03 12:32:08;;;;;;;2.93;2.03;;;25.60;74.50;;;;;;5016723;28;20420;-64
2023/07/03 12:34:37;;;;;;;2.17;1.97;;;25.40;74.30;;;;;;4998812;28;20472;-64
2023/07/03 12:37:06;;;;;;;1.80;1.67;;;25.40;74.90;;;;;;5016403;28;20444;-63
2023/07/03 12:39:33;;;;;;;1.70;1.60;;;25.40;74.80;;;;;;5015605;28;20750;-64
2023/07/03 12:42:10;;;;;;;3.00;1.60;;;25.50;73.50;;;;;;4979631;28;20498;-64
2023/07/03 12:44:36;;;;;;;1.37;1.27;;;25.50;74.30;;;;;;4996578;28;20416;-64
2023/07/03 12:47:28;;;;;;;1.73;1.63;;;25.60;74.80;;;;;;4996528;28;20572;-64
2023/07/03 12:50:00;;;;;;;2.27;1.63;;;25.60;74.70;;;;;;4994402;28;20409;-64
2023/07/03 12:52:30;;;;;;;4.00;2.03;;;25.70;75.20;;;;;;4997501;28;20506;-64
2023/07/03 12:54:56;;;;;;;3.23;2.07;;;25.80;72.30;;;;;;5000782;28;20442;-64
2023/07/03 12:57:22;;;;;;;2.00;1.80;;;25.80;72.60;;;;;;5015946;28;20414;-63
2023/07/03 12:59:51;;;;;;;1.50;1.30;;;25.70;71.60;;;;;;5015836;28;20552;-64
2023/07/03 13:02:27;;;;;;;2.73;2.27;;;25.60;73.20;;;;;;5013749;28;20426;-64
2023/07/03 13:05:02;;;;;;;1.77;1.67;;;25.70;73.00;;;;;;4996631;28;20446;-64
2023/07/03 13:07:29;;;;;;;0.90;0.90;;;25.80;72.70;;;;;;4995838;28;20458;-63
2023/07/03 13:10:06;;;;;;;2.20;1.77;;;25.80;70.80;;;;;;4996165;28;20446;-66
2023/07/03 13:12:34;;;;;;;1.40;1.30;;;25.70;71.00;;;;;;4997699;28;20491;-67
2023/07/03 13:15:07;;;;;;;1.70;1.60;;;25.70;70.80;;;;;;4995879;28;20421;-67
2023/07/03 13:17:34;;;;;;;1.40;1.30;;;25.70;70.80;;;;;;4996191;28;20418;-68
2023/07/03 13:20:24;;;;;;;1.83;1.60;;;25.70;69.00;;;;;;4996076;28;20411;-67
2023/07/03 13:22:56;;;;;;;1.50;1.40;;;25.60;70.40;;;;;;5001274;28;20446;-66
2023/07/03 13:25:34;;;;;;;1.00;0.97;;;25.50;70.20;;;;;;5004469;28;20417;-67
2023/07/03 13:28:18;;;;;;;2.60;1.70;;;25.40;68.60;;;;;;5005084;28;20436;-67
2023/07/03 13:30:43;;;;;;;1.10;1.03;;;25.50;69.90;;;;;;5015713;28;20424;-66
2023/07/03 13:33:24;;;;;;;0.97;0.87;;;25.50;69.40;;;;;;5007758;28;20427;-67
2023/07/03 13:35:51;;;;;;;0.90;0.90;;;25.50;67.60;;;;;;5015752;28;20655;-66
2023/07/03 13:38:23;;;;;;;1.50;1.20;;;25.50;68.20;;;;;;4997371;28;20923;-68
2023/07/03 13:40:50;;;;;;;0.77;0.77;;;25.50;69.20;;;;;;4996240;28;20425;-68
2023/07/03 13:43:22;;;;;;;1.27;0.97;;;25.60;67.80;;;;;;5007964;28;20434;-68
2023/07/03 13:45:50;;;;;;;10.67;2.40;;;25.60;67.90;;;;;;5012165;28;20758;-69
2023/07/03 13:48:16;;;;;;;1.43;1.10;;;25.70;68.20;;;;;;5004051;28;20485;-68
2023/07/03 13:50:42;;;;;;;1.10;1.10;;;25.90;67.40;;;;;;5003831;28;20429;-68
2023/07/03 13:53:08;;;;;;;2.03;1.43;;;26.00;67.10;;;;;;5002450;28;20497;-67
2023/07/03 13:55:34;;;;;;;2.77;1.60;;;26.10;66.70;;;;;;5005766;28;20440;-68
2023/07/03 13:58:00;;;;;;;2.60;1.60;;;26.20;67.20;;;;;;4995018;28;20390;-67
2023/07/03 14:00:27;;;;;;;0.80;0.80;;;26.20;67.90;;;;;;4995208;28;20174;-68
2023/07/03 14:02:52;;;;;;;1.60;1.50;;;26.10;67.30;;;;;;4978815;28;20228;-67
2023/07/03 14:05:19;;;;;;;1.70;1.03;;;26.20;67.20;;;;;;5001083;28;20469;-67
2023/07/03 14:07:45;;;;;;;1.50;1.30;;;26.20;67.50;;;;;;5014970;28;20206;-66
2023/07/03 14:10:11;;;;;;;1.43;1.33;;;26.10;67.10;;;;;;5014862;28;20435;-67
2023/07/03 14:12:36;;;;;;;1.40;1.30;;;26.10;67.10;;;;;;5014905;28;20180;-68
2023/07/03 14:15:28;;;;;;;1.00;0.90;;;26.00;67.10;;;;;;5013908;28;20230;-68
2023/07/03 14:17:54;;;;;;;1.20;1.10;;;25.80;68.00;;;;;;5002209;28;20202;-67
2023/07/03 14:20:21;;;;;;;2.07;0.93;;;25.60;67.90;;;;;;5014633;28;20410;-68
2023/07/03 14:22:48;;;;;;;1.30;1.20;;;25.50;69.00;;;;;;5014599;28;20480;-67
2023/07/03 14:25:14;;;;;;;0.80;0.80;;;25.30;69.30;;;;;;4995341;28;20446;-68
2023/07/03 14:27:40;;;;;;;1.90;0.80;;;25.20;69.70;;;;;;4995686;28;20440;-69
2023/07/03 14:30:07;;;;;;;0.80;0.80;;;25.00;69.30;;;;;;5004620;28;20919;-68
2023/07/03 14:32:34;;;;;;;1.50;1.40;;;24.90;70.00;;;;;;4995302;28;20397;-68
2023/07/03 14:35:06;;;;;;;0.83;0.70;;;25.00;71.30;;;;;;4994268;28;20439;-68
2023/07/03 14:37:32;;;;;;;0.90;0.90;;;25.10;71.70;;;;;;5007726;28;20421;-68
2023/07/03 14:39:59;;;;;;;1.53;0.93;;;25.30;71.80;;;;;;5014156;28;20843;-67
2023/07/03 14:42:24;;;;;;;0.80;0.80;;;25.50;71.50;;;;;;5014357;28;20421;-67
2023/07/03 14:44:50;;;;;;;0.93;0.93;;;25.70;70.70;;;;;;5002499;28;20959;-68
2023/07/03 14:47:16;;;;;;;1.10;1.00;;;25.70;72.10;;;;;;4994363;28;20211;-68
2023/07/03 14:49:43;;;;;;;0.53;0.53;;;25.80;68.70;;;;;;4994417;28;20186;-67
2023/07/03 14:52:08;;;;;;;1.13;0.70;;;25.70;69.10;;;;;;5000595;28;20217;-69
2023/07/03 14:54:34;;;;;;;0.80;0.80;;;25.60;69.20;;;;;;5013571;28;20829;-69
2023/07/03 14:57:00;;;;;;;1.20;1.03;;;25.60;70.10;;;;;;5013933;28;20633;-66
2023/07/03 14:59:25;;;;;;;0.60;0.60;;;25.70;69.80;;;;;;5004005;28;20218;-68
2023/07/03 15:01:51;;;;;;;0.77;0.77;;;25.70;68.80;;;;;;4994501;28;20256;-68
2023/07/03 15:04:16;;;;;;;0.50;0.50;;;25.70;69.70;;;;;;4994002;28;20180;-68
2023/07/03 15:06:42;;;;;;;1.43;1.33;;;25.80;69.40;;;;;;4994077;28;20187;-69
2023/07/03 15:09:08;;;;;;;1.33;1.23;;;25.90;67.90;;;;;;4994082;28;20230;-68
2023/07/03 15:11:35;;;;;;;1.07;0.97;;;26.00;67.80;;;;;;5001306;28;20176;-68
2023/07/03 15:14:01;;;;;;;0.73;0.73;;;25.90;68.20;;;;;;5003332;28;20514;-69
2023/07/03 15:16:28;;;;;;;0.63;0.63;;;25.90;68.50;;;;;;5013622;28;20445;-68
2023/07/03 15:18:54;;;;;;;1.33;1.00;;;25.90;68.10;;;;;;4984154;28;20796;-68
2023/07/03 15:21:19;;;;;;;1.33;1.20;;;25.80;67.70;;;;;;4995353;28;20431;-68
2023/07/03 15:23:45;;;;;;;0.83;0.83;;;25.80;67.90;;;;;;4992228;28;20522;-67
2023/07/03 15:26:11;;;;;;;0.67;0.67;;;25.70;67.60;;;;;;5010219;28;20202;-69
2023/07/03 15:28:36;;;;;;;1.40;1.00;;;25.70;66.90;;;;;;5009896;28;20214;-66
2023/07/03 15:31:02;;;;;;;0.50;0.50;;;25.70;67.70;;;;;;4998107;28;20190;-67
2023/07/03 15:33:28;;;;;;;2.50;0.87;;;25.80;68.30;;;;;;5006323;28;20183;-68
2023/07/03 15:36:00;;;;;;;1.97;1.47;;;25.90;67.80;;;;;;4993620;28;20402;-66
2023/07/03 15:38:29;;;;;;;0.87;0.87;;;25.80;66.60;;;;;;4995121;28;20179;-66
2023/07/03 15:40:56;;;;;;;0.70;0.70;;;25.70;67.20;;;;;;5012028;28;20844;-67
2023/07/03 15:43:22;;;;;;;1.17;0.60;;;25.60;67.90;;;;;;5012020;28;20461;-67
2023/07/03 15:46:18;;;;;;;0.60;0.60;;;25.50;68.60;;;;;;5002108;28;20496;-68
2023/07/03 15:48:46;;;;;;;0.53;0.53;;;25.40;68.40;;;;;;4980876;28;20457;-67
2023/07/03 15:51:14;;;;;;;1.50;1.40;;;25.30;67.50;;;;;;4992516;28;20422;-65
2023/07/03 15:53:40;;;;;;;1.70;1.47;;;25.10;68.10;;;;;;4993272;28;20427;-67
2023/07/03 15:56:14;;;;;;;0.67;0.67;;;25.00;68.40;;;;;;4993649;28;20525;-67
2023/07/03 15:58:43;;;;;;;0.57;0.57;;;24.90;68.50;;;;;;4997642;28;20187;-68
2023/07/03 16:01:12;;;;;;;0.50;0.50;;;24.80;68.70;;;;;;4993533;28;20473;-68
2023/07/03 16:03:39;;;;;;;0.73;0.73;;;24.70;68.70;;;;;;4996371;28;20469;-70
2023/07/03 16:06:12;;;;;;;0.83;0.60;;;24.60;69.60;;;;;;4997192;28;20960;-62
2023/07/03 16:08:39;;;;;;;0.80;0.80;;;24.60;69.70;;;;;;5001241;28;20489;-62
2023/07/03 16:11:09;;;;;;;0.80;0.80;;;24.60;69.90;;;;;;4989587;28;20808;-65
2023/07/03 16:13:35;;;;;;;0.40;0.40;;;24.60;69.40;;;;;;5015149;28;20425;-62
2023/07/03 16:16:06;;;;;;;0.80;0.80;;;24.60;69.30;;;;;;5004039;28;20442;-61
2023/07/03 16:18:32;;;;;;;0.43;0.43;;;24.60;70.00;;;;;;4999124;28;20430;-63
2023/07/03 16:20:59;;;;;;;0.53;0.53;;;24.60;70.10;;;;;;5016704;28;20448;-61
2023/07/03 16:23:27;;;;;;;0.50;0.40;;;24.60;71.10;;;;;;5016123;28;20429;-64
2023/07/03 16:25:59;;;;;;;0.70;0.60;;;24.60;71.20;;;;;;5009493;28;20441;-64
2023/07/03 16:28:29;;;;;;;0.90;0.90;;;24.70;71.40;;;;;;4999073;28;20462;-65
2023/07/03 16:30:59;;;;;;;0.93;0.93;;;24.80;70.20;;;;;;5016361;28;20430;-65
2023/07/03 16:33:25;;;;;;;1.60;1.50;;;24.90;70.10;;;;;;5002252;28;20418;-65
2023/07/03 16:35:59;;;;;;;1.47;1.33;;;25.00;69.60;;;;;;5007459;28;20459;-65
2023/07/03 16:38:25;;;;;;;0.50;0.43;;;25.00;69.10;;;;;;4999678;28;20507;-65
2023/07/03 16:40:51;;;;;;;0.60;0.60;;;25.00;69.80;;;;;;4999696;28;20506;-65
2023/07/03 16:43:16;;;;;;;0.50;0.50;;;25.00;69.90;;;;;;5013585;28;20445;-66
2023/07/03 16:45:42;;;;;;;1.60;1.20;;;25.00;70.00;;;;;;4996680;28;20505;-64
2023/07/03 16:48:08;;;;;;;1.10;1.00;;;24.90;70.10;;;;;;4997775;28;20215;-65
2023/07/03 16:50:34;;;;;;;3.90;1.63;;;24.90;69.70;;;;;;5004575;28;20191;-65
2023/07/03 16:53:00;;;;;;;2.50;1.07;;;24.90;70.30;;;;;;4996472;28;20426;-65
2023/07/03 16:55:25;;;;;;;0.70;0.47;;;24.80;71.80;;;;;;5004284;28;20681;-67
2023/07/03 16:57:51;;;;;;;0.53;0.50;;;24.80;71.60;;;;;;5011938;28;20183;-65
2023/07/03 17:00:17;;;;;;;0.63;0.63;;;24.70;72.10;;;;;;4996093;28;20189;-65
2023/07/03 17:02:42;;;;;;;0.70;0.70;;;24.60;71.60;;;;;;4996385;28;20179;-65
2023/07/03 17:05:08;;;;;;;0.80;0.80;;;24.60;71.50;;;;;;4996959;28;20214;-64
2023/07/03 17:07:33;;;;;;;0.63;0.63;;;24.60;71.90;;;;;;5003374;28;20696;-68